Time;durP1;ratioP1;P1;durP2;ratioP2;P2;SDS_P1;SDS_P2;PMS_P1;PMS_P2;Temp;Humidity;BMP_temperature;BMP_pressure;BME280_temperature;BME280_humidity;BME280_pressure;Samples;Min_cycle;Max_cycle;Signal;HPM_P1;HPM_P2
2022/05/15 00:04:38;;;;;;;14.90;8.17;;;;;;;3.81;59.97;101013.16;10614238;27;20193;-86
2022/05/15 00:09:41;;;;;;;18.10;7.57;;;;;;;3.76;59.67;101005.69;10572233;27;20535;-86
2022/05/15 00:14:44;;;;;;;13.53;7.40;;;;;;;2.94;61.37;101023.44;10586518;27;20285;-87
2022/05/15 00:19:46;;;;;;;15.67;6.93;;;;;;;3.61;59.18;101012.50;10598026;27;20695;-86
2022/05/15 00:24:49;;;;;;;15.23;7.67;;;;;;;3.67;58.72;101010.41;10597956;27;20201;-86
2022/05/15 00:29:51;;;;;;;18.97;6.80;;;;;;;3.73;58.56;101008.28;10589357;27;20238;-86
2022/05/15 00:34:53;;;;;;;14.70;7.47;;;;;;;3.45;58.88;101013.16;10604948;27;20197;-87
2022/05/15 00:39:55;;;;;;;19.73;7.53;;;;;;;3.72;58.85;101007.47;10598331;27;20303;-86
2022/05/15 00:44:58;;;;;;;19.90;7.03;;;;;;;3.71;58.50;101000.16;10581255;27;20194;-86
2022/05/15 00:50:03;;;;;;;17.07;7.10;;;;;;;3.74;58.27;101002.34;10586743;27;20197;-85
2022/05/15 00:55:10;;;;;;;16.67;7.67;;;;;;;3.62;58.48;101002.06;10602570;27;20245;-85
2022/05/15 01:00:16;;;;;;;14.52;6.95;;;;;;;3.51;59.08;101000.63;10596652;27;20482;-84
2022/05/15 01:05:19;;;;;;;15.73;7.33;;;;;;;3.39;59.51;101003.16;10583952;27;20706;-86
2022/05/15 01:10:22;;;;;;;20.87;7.57;;;;;;;3.56;59.21;100994.88;10566968;27;20261;-85
2022/05/15 01:15:26;;;;;;;14.27;6.80;;;;;;;3.48;59.43;101013.34;10579683;27;20221;-85
2022/05/15 01:20:32;;;;;;;12.93;7.20;;;;;;;3.47;59.26;100997.59;10594747;27;20495;-85
2022/05/15 01:25:36;;;;;;;13.47;7.10;;;;;;;3.41;59.56;100996.06;10570775;27;20194;-84
2022/05/15 01:30:42;;;;;;;15.20;6.30;;;;;;;3.43;59.70;101004.19;10571538;27;20197;-86
2022/05/15 01:35:45;;;;;;;15.30;6.97;;;;;;;3.53;59.18;101003.97;10585052;27;20463;-86
2022/05/15 01:40:51;;;;;;;11.97;7.03;;;;;;;2.11;64.53;101006.69;10585186;27;20231;-85
2022/05/15 01:45:54;;;;;;;17.17;7.30;;;;;;;2.04;64.99;101017.44;10585574;27;20254;-84
2022/05/15 01:50:57;;;;;;;15.53;6.60;;;;;;;1.74;66.93;101013.13;10602991;27;20194;-84
2022/05/15 01:56:03;;;;;;;14.00;6.57;;;;;;;1.86;66.66;101005.06;10598248;27;20259;-84
2022/05/15 02:01:07;;;;;;;16.37;7.30;;;;;;;1.90;66.80;101004.16;10555892;27;20282;-84
2022/05/15 02:06:10;;;;;;;12.87;6.03;;;;;;;2.54;64.43;100996.94;10575812;28;20189;-84
2022/05/15 02:11:13;;;;;;;12.13;7.03;;;;;;;2.58;63.67;101006.44;10573053;27;20194;-84
2022/05/15 02:16:15;;;;;;;11.77;6.27;;;;;;;2.31;64.60;101002.69;10576871;27;20235;-84
2022/05/15 02:21:18;;;;;;;14.50;6.00;;;;;;;2.60;63.64;100994.88;10567769;28;20221;-86
2022/05/15 02:26:20;;;;;;;12.37;6.63;;;;;;;2.60;63.17;100992.91;10580491;27;20198;-83
2022/05/15 02:31:23;;;;;;;17.47;6.53;;;;;;;2.50;63.77;100984.66;10584803;28;20194;-84
2022/05/15 02:36:27;;;;;;;11.27;6.60;;;;;;;2.22;64.98;100988.53;10591779;28;20533;-84
2022/05/15 02:41:30;;;;;;;13.93;7.47;;;;;;;2.27;65.18;100994.03;10588695;28;20213;-84
2022/05/15 02:46:34;;;;;;;13.07;6.77;;;;;;;1.99;66.29;100986.66;10595186;28;20246;-84
2022/05/15 02:51:36;;;;;;;11.07;6.47;;;;;;;1.88;66.32;100994.38;10566647;28;20190;-83
2022/05/15 02:56:39;;;;;;;12.45;7.40;;;;;;;2.08;65.13;100996.88;10566541;28;20190;-83
2022/05/15 03:01:41;;;;;;;12.77;7.03;;;;;;;2.01;66.07;100990.78;10570048;28;20262;-84
2022/05/15 03:06:44;;;;;;;14.87;7.17;;;;;;;2.28;65.15;100990.09;10592369;28;20218;-84
2022/05/15 03:11:47;;;;;;;13.27;6.83;;;;;;;2.14;65.70;100983.59;10575128;28;20217;-83
2022/05/15 03:16:50;;;;;;;12.00;7.23;;;;;;;1.64;67.17;101000.06;10575189;28;20269;-83
2022/05/15 03:21:52;;;;;;;13.37;7.67;;;;;;;2.05;65.61;100996.66;10591373;28;20213;-83
2022/05/15 03:26:55;;;;;;;9.80;6.53;;;;;;;2.19;65.25;100986.31;10563401;28;20254;-84
2022/05/15 03:31:58;;;;;;;13.23;8.40;;;;;;;1.80;66.20;100992.25;10601719;28;20447;-84
2022/05/15 03:37:00;;;;;;;9.60;6.87;;;;;;;1.85;65.71;100993.03;10567334;28;20197;-84
2022/05/15 03:42:04;;;;;;;14.13;7.47;;;;;;;1.91;65.99;100989.00;10596996;27;20486;-84
2022/05/15 03:47:07;;;;;;;9.67;6.97;;;;;;;1.78;66.27;100994.53;10578122;28;20247;-84
2022/05/15 03:52:10;;;;;;;12.13;7.10;;;;;;;1.84;66.95;100988.56;10549964;28;20453;-84
2022/05/15 03:57:12;;;;;;;15.20;8.33;;;;;;;1.78;67.04;100981.34;10590526;27;20521;-83
2022/05/15 04:02:15;;;;;;;7.97;6.60;;;;;;;1.96;66.23;100988.09;10572985;27;20634;-83
2022/05/15 04:07:18;;;;;;;13.27;8.13;;;;;;;1.90;66.22;100978.88;10572839;27;20243;-83
2022/05/15 04:12:20;;;;;;;11.03;7.37;;;;;;;1.89;66.72;100988.47;10577678;27;20218;-83
2022/05/15 04:17:23;;;;;;;12.63;7.57;;;;;;;1.85;66.57;100975.34;10588097;27;20194;-83
2022/05/15 04:22:25;;;;;;;11.37;7.70;;;;;;;1.97;66.20;100977.69;10560092;27;20503;-83
2022/05/15 04:27:28;;;;;;;10.50;7.53;;;;;;;2.04;66.31;100973.31;10571550;27;20478;-83
2022/05/15 04:32:30;;;;;;;8.80;6.97;;;;;;;2.09;66.02;100972.41;10550331;27;20239;-83
2022/05/15 04:37:33;;;;;;;11.27;7.73;;;;;;;2.21;65.49;100981.22;10563436;28;20251;-83
2022/05/15 04:42:35;;;;;;;12.23;7.67;;;;;;;2.28;65.35;100979.69;10546955;28;20214;-83
2022/05/15 04:47:38;;;;;;;12.00;7.57;;;;;;;2.27;65.68;100982.81;10584005;27;20287;-83
2022/05/15 04:52:40;;;;;;;9.93;7.57;;;;;;;2.11;66.48;100979.41;10562979;27;20190;-84
2022/05/15 04:57:43;;;;;;;14.53;7.97;;;;;;;2.27;65.61;100977.19;10576187;27;20198;-84
2022/05/15 05:02:45;;;;;;;10.30;7.77;;;;;;;2.36;65.35;100980.97;10594088;27;20217;-83
2022/05/15 05:07:47;;;;;;;11.23;8.00;;;;;;;2.53;64.52;100978.38;10603906;27;20189;-83
2022/05/15 05:12:49;;;;;;;11.43;8.73;;;;;;;2.34;65.76;100986.06;10582635;27;20566;-83
2022/05/15 05:17:52;;;;;;;9.87;7.80;;;;;;;2.81;64.05;100981.25;10570976;27;20214;-85
2022/05/15 05:22:54;;;;;;;12.57;8.27;;;;;;;3.11;63.72;100991.88;10581813;27;20214;-84
2022/05/15 05:27:56;;;;;;;10.10;8.23;;;;;;;3.00;63.31;100998.88;10562705;27;20191;-84
2022/05/15 05:32:58;;;;;;;16.20;9.00;;;;;;;3.19;63.30;101002.44;10547243;27;20262;-84
2022/05/15 05:38:01;;;;;;;15.00;8.70;;;;;;;3.36;62.66;101004.63;10558794;27;20218;-84
2022/05/15 05:43:03;;;;;;;10.30;8.17;;;;;;;3.65;61.29;101009.91;10576767;27;20286;-80
2022/05/15 05:48:06;;;;;;;11.97;8.13;;;;;;;3.92;60.42;101006.16;10585822;27;20192;-80
2022/05/15 05:53:09;;;;;;;13.67;8.37;;;;;;;2.61;65.54;101014.25;10600311;27;20237;-84
2022/05/15 05:58:12;;;;;;;13.30;8.20;;;;;;;2.86;65.95;101020.53;10562287;27;20237;-87
2022/05/15 06:08:34;;;;;;;13.43;7.00;;;;;;;3.56;63.65;101017.41;10593106;27;20213;-84
2022/05/15 06:13:36;;;;;;;15.80;7.77;;;;;;;3.49;62.99;101009.41;10594418;27;20246;-84
2022/05/15 06:18:40;;;;;;;11.43;7.88;;;;;;;3.63;63.46;101007.38;10555605;28;20271;-84
2022/05/15 06:23:43;;;;;;;11.23;7.03;;;;;;;4.07;61.93;101006.59;10533409;28;20303;-86
2022/05/15 06:28:45;;;;;;;12.35;7.88;;;;;;;4.03;61.52;101002.78;10540169;28;20214;-84
2022/05/15 06:33:48;;;;;;;10.80;7.70;;;;;;;4.24;61.08;101007.94;10527815;28;20535;-85
2022/05/15 06:38:50;;;;;;;11.50;7.77;;;;;;;4.47;58.75;101003.94;10540992;28;20230;-86
2022/05/15 06:43:54;;;;;;;8.88;5.85;;;;;;;4.62;58.82;101003.53;10535321;28;20218;-85
2022/05/15 06:48:56;;;;;;;9.10;6.40;;;;;;;4.67;57.34;100991.28;10526862;28;20217;-87
2022/05/15 06:53:59;;;;;;;11.38;6.03;;;;;;;5.68;54.67;100990.31;10526449;28;20255;-86
2022/05/15 06:59:03;;;;;;;12.00;6.03;;;;;;;5.67;54.44;100991.47;10535363;28;20251;-86
2022/05/15 07:04:05;;;;;;;12.48;6.07;;;;;;;6.21;53.05;100992.03;10571251;28;20252;-84
2022/05/15 07:09:08;;;;;;;12.90;6.23;;;;;;;6.38;52.12;100997.66;10573823;28;20247;-86
2022/05/15 07:14:11;;;;;;;9.03;5.43;;;;;;;6.64;52.06;100991.94;10537725;28;20221;-85
2022/05/15 07:19:13;;;;;;;10.25;5.25;;;;;;;6.71;52.83;100984.63;10598675;27;20248;-85
2022/05/15 07:24:16;;;;;;;11.60;5.78;;;;;;;6.95;51.77;100983.19;10546806;28;20319;-86
2022/05/15 07:29:20;;;;;;;6.00;4.28;;;;;;;7.36;52.14;100977.66;10581524;27;20826;-85
2022/05/15 07:34:22;;;;;;;9.30;5.57;;;;;;;7.22;50.88;100982.72;10577423;27;20282;-84
2022/05/15 07:39:25;;;;;;;12.23;5.47;;;;;;;8.00;48.76;100974.53;10550106;27;20651;-86
2022/05/15 07:44:27;;;;;;;10.77;4.28;;;;;;;8.24;49.31;100968.97;10559706;27;20306;-86
2022/05/15 07:49:31;;;;;;;10.80;5.07;;;;;;;8.61;47.16;100969.13;10581150;27;20193;-84
2022/05/15 07:54:33;;;;;;;11.77;5.40;;;;;;;8.53;47.42;100964.38;10557443;27;20190;-86
2022/05/15 07:59:35;;;;;;;9.27;5.00;;;;;;;8.91;46.70;100969.78;10567207;27;20201;-86
2022/05/15 08:09:58;;;;;;;10.27;4.75;;;;;;;9.65;45.05;100955.19;10574602;27;20590;-84
2022/05/15 08:15:02;;;;;;;13.35;4.65;;;;;;;9.62;44.84;100955.94;10585400;27;20243;-84
2022/05/15 08:25:26;;;;;;;14.73;3.80;;;;;;;9.76;44.82;100957.59;10576290;27;20616;-85
2022/05/15 08:30:31;;;;;;;9.68;3.47;;;;;;;10.12;42.56;100951.78;10563101;27;20198;-85
2022/05/15 08:35:34;;;;;;;11.07;3.65;;;;;;;10.39;40.31;100938.72;10573968;27;20243;-86
2022/05/15 08:40:53;;;;;;;16.52;3.30;;;;;;;10.14;38.12;100942.88;10560236;28;20559;-85
2022/05/15 08:46:03;;;;;;;11.60;3.50;;;;;;;10.06;38.04;100941.81;10568203;27;20658;-85
2022/05/15 08:51:11;;;;;;;8.50;3.05;;;;;;;10.41;38.19;100940.00;10551490;27;20201;-86
2022/05/15 08:56:13;;;;;;;7.13;2.92;;;;;;;10.41;40.00;100936.34;10565667;27;20258;-85
2022/05/15 09:01:26;;;;;;;13.15;3.08;;;;;;;10.45;39.48;100942.97;10544162;27;20310;-85
2022/05/15 09:06:41;;;;;;;9.02;2.88;;;;;;;10.90;37.41;100936.88;10523820;27;20374;-85
2022/05/15 09:11:51;;;;;;;10.00;2.55;;;;;;;11.15;37.84;100931.00;10583287;27;20626;-85
2022/05/15 09:16:56;;;;;;;12.30;3.28;;;;;;;11.01;38.30;100922.88;10582377;27;20247;-86
2022/05/15 09:21:59;;;;;;;7.95;3.47;;;;;;;11.22;37.62;100922.59;10562754;27;20243;-86
2022/05/15 09:27:15;;;;;;;9.52;3.00;;;;;;;11.14;37.29;100913.06;10577698;27;20258;-86
2022/05/15 09:32:29;;;;;;;11.65;3.42;;;;;;;11.00;37.60;100918.38;10560499;28;20193;-85
2022/05/15 09:48:23;;;;;;;9.00;2.67;;;;;;;11.20;37.02;100910.75;10565112;27;20193;-85
2022/05/15 09:53:38;;;;;;;10.68;2.85;;;;;;;11.81;35.10;100896.69;10546466;27;20209;-86
2022/05/15 09:58:46;;;;;;;12.25;3.15;;;;;;;12.16;36.44;100900.28;10562594;27;20201;-85
2022/05/15 10:03:54;;;;;;;11.93;3.08;;;;;;;12.11;35.18;100896.94;10562769;27;20241;-85
2022/05/15 10:09:26;;;;;;;12.18;2.67;;;;;;;12.50;34.44;100892.78;10548457;27;20254;-86
2022/05/15 10:14:34;;;;;;;10.93;2.85;;;;;;;13.03;34.87;100890.03;10571671;27;20267;-85
2022/05/15 10:20:04;;;;;;;7.35;2.30;;;;;;;13.04;33.51;100879.41;10580940;27;20233;-85
2022/05/15 10:25:21;;;;;;;11.20;2.70;;;;;;;12.77;35.22;100873.69;10561646;28;20274;-84
2022/05/15 10:30:30;;;;;;;8.43;2.35;;;;;;;12.80;34.26;100874.94;10560774;28;20197;-85
2022/05/15 10:35:59;;;;;;;6.88;3.22;;;;;;;13.55;34.03;100869.19;10577710;28;20239;-86
2022/05/15 10:41:19;;;;;;;8.30;2.75;;;;;;;13.10;34.65;100867.31;10561756;28;20246;-84
2022/05/15 10:46:44;;;;;;;9.18;3.20;;;;;;;12.79;33.33;100870.44;10529051;27;20302;-85
2022/05/15 10:52:00;;;;;;;6.47;2.60;;;;;;;13.16;34.46;100860.03;10583948;27;20255;-84
2022/05/15 10:57:29;;;;;;;10.90;3.13;;;;;;;13.19;33.51;100858.44;10553169;27;20197;-85
2022/05/15 11:03:09;;;;;;;7.82;2.92;;;;;;;13.75;34.14;100843.31;10543690;27;20257;-85
2022/05/15 11:08:25;;;;;;;8.48;2.50;;;;;;;13.73;32.22;100837.97;10593446;27;20189;-85
2022/05/15 11:13:57;;;;;;;9.15;3.15;;;;;;;12.69;34.53;100829.06;10583704;27;20229;-86
2022/05/15 11:19:15;;;;;;;8.90;2.92;;;;;;;12.80;34.80;100821.47;10568642;27;20239;-85
2022/05/15 11:24:41;;;;;;;12.98;2.70;;;;;;;12.76;33.08;100816.94;10552744;27;20221;-86
2022/05/15 11:29:47;;;;;;;8.55;2.65;;;;;;;14.24;32.01;100809.50;10564175;28;20202;-87
2022/05/15 11:35:03;;;;;;;11.95;2.72;;;;;;;13.01;33.27;100803.03;10520287;27;20255;-85
2022/05/15 11:40:11;;;;;;;8.40;2.42;;;;;;;14.17;32.26;100805.75;10539459;27;20254;-86
2022/05/15 11:45:32;;;;;;;16.25;3.13;;;;;;;14.39;31.08;100801.09;10565414;27;20303;-85
2022/05/15 11:50:44;;;;;;;10.55;2.65;;;;;;;14.27;31.37;100799.31;10546737;28;20233;-86
2022/05/15 11:55:49;;;;;;;8.20;2.45;;;;;;;14.28;30.43;100787.50;10544303;28;20660;-84
2022/05/15 12:01:11;;;;;;;6.22;2.88;;;;;;;14.31;29.62;100791.63;10551970;28;20194;-84
2022/05/15 12:06:17;;;;;;;7.07;2.35;;;;;;;13.47;30.76;100786.50;10586527;27;20363;-86
2022/05/15 12:11:20;;;;;;;9.13;2.42;;;;;;;13.29;31.61;100776.84;10546533;28;20198;-87
2022/05/15 12:16:31;;;;;;;7.57;2.50;;;;;;;13.79;28.76;100776.31;10580570;28;20217;-86
2022/05/15 12:21:39;;;;;;;6.70;2.10;;;;;;;14.97;29.19;100763.91;10566144;28;20263;-87
2022/05/15 12:26:50;;;;;;;11.65;2.92;;;;;;;14.64;28.12;100750.53;10541239;28;20194;-86
2022/05/15 12:31:55;;;;;;;7.47;2.40;;;;;;;14.86;26.69;100748.63;10559536;28;20246;-87
2022/05/15 12:37:06;;;;;;;9.25;2.40;;;;;;;15.18;28.27;100735.31;10580083;28;20198;-87
2022/05/15 12:42:33;;;;;;;6.78;1.75;;;;;;;15.05;27.51;100725.41;10547344;28;20262;-86
2022/05/15 12:47:36;;;;;;;6.25;1.95;;;;;;;14.86;28.87;100729.38;10557502;28;20613;-86
2022/05/15 12:52:39;;;;;;;6.97;1.95;;;;;;;15.31;27.07;100721.44;10562758;28;20202;-85
2022/05/15 12:57:44;;;;;;;6.22;2.20;;;;;;;14.96;27.96;100711.44;10561558;28;20251;-85
2022/05/15 13:02:47;;;;;;;8.98;2.40;;;;;;;15.05;27.06;100705.34;10562532;28;20218;-86
2022/05/15 13:07:57;;;;;;;7.38;2.42;;;;;;;14.73;26.93;100712.91;10558834;27;20602;-86
2022/05/15 13:13:08;;;;;;;9.30;2.15;;;;;;;15.73;27.16;100706.44;10560606;28;20613;-85
2022/05/15 13:18:17;;;;;;;8.02;2.28;;;;;;;14.95;26.97;100697.50;10563002;27;20742;-86
2022/05/15 13:23:27;;;;;;;11.52;2.13;;;;;;;15.66;27.06;100690.00;10578320;28;20388;-86
2022/05/15 13:28:33;;;;;;;8.25;2.45;;;;;;;14.63;27.77;100689.50;10559616;28;20248;-89
2022/05/15 13:33:38;;;;;;;5.93;1.58;;;;;;;14.90;27.31;100681.50;10559832;28;20246;-85
2022/05/15 13:44:04;;;;;;;5.05;2.00;;;;;;;15.99;26.86;100679.38;10576796;27;20243;-86
2022/05/15 13:49:09;;;;;;;7.03;2.25;;;;;;;15.55;26.92;100666.19;10559706;28;20441;-86
2022/05/15 13:54:27;;;;;;;10.07;2.70;;;;;;;16.29;26.20;100656.00;10568302;28;20243;-87
2022/05/15 13:59:41;;;;;;;6.65;2.00;;;;;;;15.62;26.58;100656.78;10543178;28;20728;-86
2022/05/15 14:05:15;;;;;;;6.35;2.13;;;;;;;16.09;25.84;100651.91;10577002;28;20263;-87
2022/05/15 14:10:22;;;;;;;6.80;1.83;;;;;;;15.82;26.82;100643.66;10577255;27;20197;-85
2022/05/15 14:15:30;;;;;;;3.83;1.45;;;;;;;16.64;26.90;100632.97;10576499;28;20230;-86
2022/05/15 14:20:43;;;;;;;9.27;2.05;;;;;;;15.88;26.93;100626.88;10559275;28;20213;-86
2022/05/15 14:25:45;;;;;;;10.18;2.50;;;;;;;15.17;28.06;100630.41;10539486;28;20613;-87
2022/05/15 14:30:48;;;;;;;10.27;2.63;;;;;;;14.71;28.78;100620.75;10542235;28;21015;-86
2022/05/15 14:35:56;;;;;;;8.68;2.47;;;;;;;15.09;29.61;100616.44;10556700;28;20190;-86
2022/05/15 14:40:58;;;;;;;5.10;2.10;;;;;;;15.66;26.89;100618.22;10528636;28;20232;-85
2022/05/15 14:46:04;;;;;;;8.32;4.78;;;;;;;15.95;27.53;100613.31;10556259;28;20534;-86
2022/05/15 14:51:10;;;;;;;6.65;1.98;;;;;;;16.13;27.08;100612.53;10575776;28;20233;-87
2022/05/15 14:56:14;;;;;;;7.20;2.00;;;;;;;15.75;27.71;100602.66;10557198;28;20195;-85
2022/05/15 15:01:18;;;;;;;9.23;1.92;;;;;;;15.10;27.91;100607.41;10543151;28;20270;-87
2022/05/15 15:06:30;;;;;;;5.72;2.30;;;;;;;16.17;28.08;100601.81;10544765;28;20305;-85
2022/05/15 15:11:35;;;;;;;5.20;1.73;;;;;;;15.58;27.77;100605.09;10568412;28;20290;-85
2022/05/15 15:16:44;;;;;;;9.13;2.00;;;;;;;14.72;27.92;100593.72;10569798;28;20483;-85
2022/05/15 15:21:46;;;;;;;10.48;2.80;;;;;;;15.75;28.42;100591.97;10543134;28;20289;-87
2022/05/15 15:26:50;;;;;;;6.40;2.47;;;;;;;16.08;27.23;100584.19;10539290;28;20278;-86
2022/05/15 15:31:52;;;;;;;11.32;2.20;;;;;;;15.14;28.63;100591.03;10555170;28;20273;-87
2022/05/15 15:42:15;;;;;;;6.72;1.88;;;;;;;14.69;29.73;100581.03;10581264;28;20189;-86
2022/05/15 15:47:17;;;;;;;6.18;2.22;;;;;;;15.63;27.87;100566.53;10547726;28;20244;-87
2022/05/15 15:52:20;;;;;;;9.20;2.63;;;;;;;15.57;27.19;100568.19;10565178;27;20267;-86
2022/05/15 15:57:23;;;;;;;13.23;5.10;;;;;;;16.18;26.49;100564.06;10548588;28;20251;-87
2022/05/15 16:02:26;;;;;;;7.20;2.20;;;;;;;15.77;28.13;100566.53;10539448;28;20341;-86
2022/05/15 16:07:28;;;;;;;6.50;2.08;;;;;;;15.61;27.76;100563.28;10556216;28;20222;-86
2022/05/15 16:12:30;;;;;;;10.00;2.25;;;;;;;15.57;26.83;100565.31;10563784;28;20248;-86
2022/05/15 16:17:32;;;;;;;7.20;2.00;;;;;;;14.98;27.90;100559.84;10578163;28;20214;-86
2022/05/15 16:22:35;;;;;;;7.47;2.05;;;;;;;15.33;27.03;100553.38;10565658;28;20198;-86
2022/05/15 16:27:37;;;;;;;6.80;2.20;;;;;;;14.22;28.25;100550.44;10568332;28;20736;-87
2022/05/15 16:32:42;;;;;;;6.55;2.13;;;;;;;14.32;29.24;100549.75;10565132;28;20185;-85
2022/05/15 16:37:45;;;;;;;10.35;2.08;;;;;;;14.42;28.06;100534.63;10563246;28;20655;-86
2022/05/15 16:42:47;;;;;;;6.47;1.90;;;;;;;14.28;29.76;100534.53;10551667;28;20645;-85
2022/05/15 16:47:50;;;;;;;6.88;2.30;;;;;;;14.07;28.91;100535.22;10565135;28;20199;-86
2022/05/15 16:52:53;;;;;;;5.75;1.73;;;;;;;13.89;29.63;100529.38;10543911;28;20191;-89
2022/05/15 16:57:55;;;;;;;8.45;2.63;;;;;;;14.12;30.16;100536.88;10562347;28;20185;-86
2022/05/15 17:02:57;;;;;;;7.47;2.20;;;;;;;13.76;29.71;100522.34;10554878;28;20202;-87
2022/05/15 17:08:00;;;;;;;10.30;2.70;;;;;;;13.72;29.09;100515.75;10558598;28;20189;-85
2022/05/15 17:13:04;;;;;;;6.30;2.10;;;;;;;13.65;30.73;100521.41;10560635;28;20229;-87
2022/05/15 17:18:07;;;;;;;10.57;2.63;;;;;;;13.91;29.97;100517.53;10577976;28;20236;-85
2022/05/15 17:23:15;;;;;;;4.78;2.30;;;;;;;13.24;30.39;100517.78;10562184;28;20490;-86
2022/05/15 17:38:58;;;;;;;3.15;1.83;;;;;;;13.40;30.07;100506.09;10577268;27;20198;-86
2022/05/15 17:44:01;;;;;;;6.95;2.08;;;;;;;13.50;30.21;100496.75;10571304;27;20637;-87
2022/05/15 17:49:04;;;;;;;9.63;2.50;;;;;;;13.17;30.78;100491.97;10544166;27;20197;-84
2022/05/15 17:54:06;;;;;;;7.00;2.33;;;;;;;12.61;31.29;100495.84;10543347;28;20193;-84
2022/05/15 17:59:09;;;;;;;8.60;2.00;;;;;;;12.97;30.24;100491.34;10562330;28;20201;-85
2022/05/15 18:04:13;;;;;;;9.52;2.90;;;;;;;12.98;30.84;100481.56;10567712;28;20213;-86
2022/05/15 18:09:16;;;;;;;7.22;2.13;;;;;;;12.68;31.59;100489.38;10559333;28;20318;-86
2022/05/15 18:14:18;;;;;;;12.05;5.15;;;;;;;12.73;31.25;100480.47;10560529;27;20270;-86
2022/05/15 18:19:21;;;;;;;8.55;2.22;;;;;;;12.68;31.42;100483.66;10576051;28;20621;-86
2022/05/15 18:24:24;;;;;;;5.60;2.33;;;;;;;12.59;31.76;100475.41;10552866;28;20217;-87
2022/05/15 18:29:27;;;;;;;7.15;1.98;;;;;;;13.30;30.11;100479.00;10556971;28;20259;-85
2022/05/15 18:34:29;;;;;;;9.88;2.30;;;;;;;13.19;30.52;100481.78;10556876;28;20537;-88
2022/05/15 18:39:31;;;;;;;8.55;2.92;;;;;;;13.06;30.88;100480.44;10576056;28;20202;-87
2022/05/15 18:44:34;;;;;;;6.22;2.10;;;;;;;13.00;30.61;100470.56;10558267;28;20210;-86
2022/05/15 18:54:54;;;;;;;11.80;2.20;;;;;;;12.88;29.68;100470.84;10545401;28;20235;-86
2022/05/15 18:54:59;;;;;;;7.22;1.98;;;;;;;12.65;30.46;100481.59;10576343;28;20238;-87
2022/05/15 19:00:04;;;;;;;4.05;1.67;;;;;;;12.73;30.84;100474.75;10572125;28;20190;-88
2022/05/15 19:05:07;;;;;;;17.02;8.15;;;;;;;12.40;31.09;100473.53;10576358;28;20221;-87
2022/05/15 19:10:11;;;;;;;5.00;2.05;;;;;;;12.27;31.35;100483.56;10560665;28;20274;-87
2022/05/15 19:15:14;;;;;;;7.00;2.08;;;;;;;12.02;31.19;100474.66;10583315;27;20575;-85
2022/05/15 19:20:18;;;;;;;4.88;2.15;;;;;;;12.51;30.01;100477.34;10583818;28;20514;-87
2022/05/15 19:25:21;;;;;;;7.03;2.55;;;;;;;12.10;31.08;100476.41;10549194;28;20514;-86
2022/05/15 19:30:24;;;;;;;9.40;3.47;;;;;;;12.10;30.67;100487.03;10566450;28;20194;-88
2022/05/15 19:35:26;;;;;;;8.38;2.72;;;;;;;11.99;30.88;100486.03;10565799;28;20193;-86
2022/05/15 19:40:29;;;;;;;6.10;2.35;;;;;;;12.02;31.05;100486.06;10582794;28;20255;-87
2022/05/15 19:45:31;;;;;;;6.85;2.65;;;;;;;11.37;32.58;100482.59;10564871;28;20629;-85
2022/05/15 19:50:34;;;;;;;7.70;2.50;;;;;;;10.99;33.06;100484.38;10582696;28;20193;-85
2022/05/15 19:55:37;;;;;;;5.45;2.10;;;;;;;11.80;31.07;100482.09;10560235;28;20198;-86
2022/05/15 20:00:43;;;;;;;11.82;2.47;;;;;;;11.65;32.12;100493.66;10567740;28;20500;-87
2022/05/15 20:11:31;;;;;;;6.95;2.03;;;;;;;11.12;33.08;100493.56;10559821;28;20552;-87
2022/05/15 20:16:35;;;;;;;6.25;2.20;;;;;;;11.46;33.12;100495.41;10544837;28;20251;-89
2022/05/15 20:21:40;;;;;;;6.55;2.25;;;;;;;10.96;34.22;100495.69;10563417;28;20221;-86
2022/05/15 20:26:43;;;;;;;6.13;2.20;;;;;;;10.89;34.44;100506.97;10547820;28;20267;-84
2022/05/15 20:31:45;;;;;;;5.03;2.30;;;;;;;10.95;35.28;100506.25;10547079;28;20251;-86
2022/05/15 20:36:50;;;;;;;4.75;2.08;;;;;;;10.77;35.70;100505.13;10582370;28;20220;-86
2022/05/15 20:41:52;;;;;;;7.28;2.22;;;;;;;10.68;36.19;100508.22;10544912;28;20239;-87
2022/05/15 20:46:55;;;;;;;7.93;2.88;;;;;;;10.74;36.84;100517.25;10560724;28;20282;-87
2022/05/15 20:51:57;;;;;;;7.35;3.88;;;;;;;11.05;36.17;100511.34;10546589;28;20202;-86
2022/05/15 20:57:01;;;;;;;10.32;3.92;;;;;;;10.68;37.94;100527.31;10546961;28;20194;-86
2022/05/15 21:02:04;;;;;;;11.13;5.18;;;;;;;10.63;38.01;100524.78;10585722;28;20194;-87
2022/05/15 21:07:06;;;;;;;8.07;3.13;;;;;;;10.81;37.32;100523.13;10570830;28;20214;-86
2022/05/15 21:12:09;;;;;;;11.07;2.70;;;;;;;10.29;38.67;100524.44;10587148;28;20563;-86
2022/05/15 21:17:11;;;;;;;8.45;2.85;;;;;;;10.54;38.56;100519.31;10587226;28;20181;-87
2022/05/15 21:22:14;;;;;;;8.13;2.50;;;;;;;10.36;38.89;100518.06;10586753;28;20193;-87
2022/05/15 21:27:16;;;;;;;8.13;2.80;;;;;;;10.41;38.27;100518.63;10569986;28;20602;-87
2022/05/15 21:32:18;;;;;;;7.05;2.97;;;;;;;10.04;40.33;100523.03;10568533;28;20193;-87
2022/05/15 21:37:26;;;;;;;6.55;2.80;;;;;;;9.87;41.03;100514.94;10570107;28;20190;-85
2022/05/15 21:47:49;;;;;;;6.95;2.75;;;;;;;9.83;40.57;100512.00;10586038;28;20262;-87
2022/05/15 21:52:51;;;;;;;6.80;2.90;;;;;;;9.95;41.00;100522.44;10585532;28;20182;-86
2022/05/15 21:57:53;;;;;;;10.52;3.10;;;;;;;9.92;40.91;100515.47;10551860;28;20190;-85
2022/05/15 22:02:56;;;;;;;8.15;2.60;;;;;;;9.60;42.11;100519.56;10585647;27;20610;-85
2022/05/15 22:08:00;;;;;;;9.95;3.22;;;;;;;9.31;42.62;100521.69;10584972;28;20479;-85
2022/05/15 22:13:03;;;;;;;5.28;2.65;;;;;;;9.34;42.26;100518.09;10584533;28;20271;-84
2022/05/15 22:18:05;;;;;;;6.90;2.45;;;;;;;8.77;43.84;100532.75;10584520;28;20198;-85
2022/05/15 22:23:08;;;;;;;5.47;2.83;;;;;;;9.70;41.68;100534.03;10584420;28;20182;-86
2022/05/15 22:28:11;;;;;;;5.15;2.72;;;;;;;9.90;41.52;100523.56;10567539;28;20482;-87
2022/05/15 22:33:14;;;;;;;8.25;2.97;;;;;;;9.57;41.84;100521.13;10567387;28;20190;-87
2022/05/15 22:38:17;;;;;;;4.05;2.75;;;;;;;9.95;40.49;100528.13;10584069;28;20482;-85
2022/05/15 22:43:21;;;;;;;6.53;2.65;;;;;;;10.35;40.20;100524.97;10570715;28;20590;-85
2022/05/15 22:48:23;;;;;;;6.30;2.80;;;;;;;10.30;40.21;100525.25;10559378;28;20217;-87
2022/05/15 22:53:25;;;;;;;4.85;2.78;;;;;;;9.70;41.53;100525.50;10575640;28;20213;-85
2022/05/15 22:58:27;;;;;;;4.47;2.40;;;;;;;9.31;42.42;100518.00;10592317;28;20463;-85
2022/05/15 23:03:30;;;;;;;5.22;2.88;;;;;;;9.36;42.11;100518.56;10591895;28;20190;-84
2022/05/15 23:08:36;;;;;;;7.05;2.35;;;;;;;9.75;40.68;100503.69;10558449;28;20286;-83
2022/05/15 23:13:39;;;;;;;7.20;2.33;;;;;;;9.68;41.10;100490.09;10591517;28;20221;-85
2022/05/15 23:18:41;;;;;;;8.63;2.88;;;;;;;9.44;41.08;100493.97;10591462;28;20206;-87
2022/05/15 23:23:43;;;;;;;5.15;2.53;;;;;;;9.55;41.27;100494.22;10574450;28;20215;-84
2022/05/15 23:28:45;;;;;;;6.38;2.60;;;;;;;9.26;40.98;100485.00;10591069;28;20210;-85
2022/05/15 23:33:47;;;;;;;4.87;2.60;;;;;;;9.41;42.34;100473.97;10556603;28;20190;-88
2022/05/15 23:38:49;;;;;;;5.45;3.15;;;;;;;9.08;41.84;100463.03;10590675;28;20254;-87
2022/05/15 23:43:51;;;;;;;8.95;2.80;;;;;;;8.84;42.33;100464.81;10573156;28;20475;-84
2022/05/15 23:48:54;;;;;;;6.25;3.00;;;;;;;8.74;42.86;100456.03;10572964;28;20698;-84
2022/05/15 23:53:56;;;;;;;7.43;3.17;;;;;;;8.89;42.21;100453.16;10588953;28;20243;-85
2022/05/15 23:58:58;;;;;;;7.22;3.33;;;;;;;9.08;42.25;100454.50;10572530;28;20598;-85
